sensor_id;sensor_type;location;lat;lon;timestamp;pressure;altitude;pressure_sealevel;temperature;humidity
65983;BME280;52740;40.620;-8.640;2022-11-12T00:00:01;101700.59;;;12.95;100.00
65983;BME280;52740;40.620;-8.640;2022-11-12T00:02:21;101699.19;;;12.86;100.00
65983;BME280;52740;40.620;-8.640;2022-11-12T00:04:41;101700.66;;;12.64;100.00
65983;BME280;52740;40.620;-8.640;2022-11-12T00:07:00;101700.84;;;12.55;100.00
65983;BME280;52740;40.620;-8.640;2022-11-12T00:09:19;101692.34;;;12.45;100.00
65983;BME280;52740;40.620;-8.640;2022-11-12T00:11:38;101703.06;;;12.34;100.00
65983;BME280;52740;40.620;-8.640;2022-11-12T00:13:57;101704.06;;;12.26;100.00
65983;BME280;52740;40.620;-8.640;2022-11-12T00:16:16;101697.41;;;12.27;100.00
65983;BME280;52740;40.620;-8.640;2022-11-12T00:18:35;101712.28;;;12.26;100.00
65983;BME280;52740;40.620;-8.640;2022-11-12T00:20:54;101709.97;;;12.12;100.00
65983;BME280;52740;40.620;-8.640;2022-11-12T00:23:14;101713.09;;;12.11;100.00
65983;BME280;52740;40.620;-8.640;2022-11-12T00:25:33;101710.88;;;12.01;100.00
65983;BME280;52740;40.620;-8.640;2022-11-12T00:27:52;101713.69;;;11.89;100.00
65983;BME280;52740;40.620;-8.640;2022-11-12T00:30:12;101713.38;;;11.78;100.00
65983;BME280;52740;40.620;-8.640;2022-11-12T00:32:34;101703.00;;;11.71;100.00
65983;BME280;52740;40.620;-8.640;2022-11-12T00:34:54;101711.69;;;11.73;100.00
65983;BME280;52740;40.620;-8.640;2022-11-12T00:37:13;101709.28;;;11.72;100.00
65983;BME280;52740;40.620;-8.640;2022-11-12T00:39:33;101704.47;;;11.69;100.00
65983;BME280;52740;40.620;-8.640;2022-11-12T00:41:52;101707.69;;;11.71;100.00
65983;BME280;52740;40.620;-8.640;2022-11-12T00:44:12;101707.69;;;11.71;100.00
65983;BME280;52740;40.620;-8.640;2022-11-12T00:46:31;101711.56;;;11.70;100.00
65983;BME280;52740;40.620;-8.640;2022-11-12T00:48:50;101710.13;;;11.60;100.00
65983;BME280;52740;40.620;-8.640;2022-11-12T00:51:10;101706.91;;;11.58;100.00
65983;BME280;52740;40.620;-8.640;2022-11-12T00:53:28;101693.97;;;11.71;100.00
65983;BME280;52740;40.620;-8.640;2022-11-12T00:55:48;101696.50;;;11.64;100.00
65983;BME280;52740;40.620;-8.640;2022-11-12T00:58:08;101694.13;;;11.62;100.00
65983;BME280;52740;40.620;-8.640;2022-11-12T01:00:27;101686.72;;;11.51;100.00
65983;BME280;52740;40.620;-8.640;2022-11-12T01:02:46;101681.38;;;11.42;100.00
65983;BME280;52740;40.620;-8.640;2022-11-12T01:05:06;101678.78;;;11.34;100.00
65983;BME280;52740;40.620;-8.640;2022-11-12T01:07:26;101682.22;;;11.30;100.00
65983;BME280;52740;40.620;-8.640;2022-11-12T01:09:45;101680.53;;;11.26;100.00
65983;BME280;52740;40.620;-8.640;2022-11-12T01:12:04;101681.28;;;11.39;100.00
65983;BME280;52740;40.620;-8.640;2022-11-12T01:14:24;101675.47;;;11.40;100.00
65983;BME280;52740;40.620;-8.640;2022-11-12T01:16:43;101682.97;;;11.43;100.00
65983;BME280;52740;40.620;-8.640;2022-11-12T01:19:04;101678.56;;;11.54;100.00
65983;BME280;52740;40.620;-8.640;2022-11-12T01:21:26;101672.81;;;11.71;100.00
65983;BME280;52740;40.620;-8.640;2022-11-12T01:23:45;101659.47;;;11.86;100.00
65983;BME280;52740;40.620;-8.640;2022-11-12T01:26:06;101665.94;;;12.09;100.00
65983;BME280;52740;40.620;-8.640;2022-11-12T01:28:25;101661.44;;;12.32;100.00
65983;BME280;52740;40.620;-8.640;2022-11-12T01:30:44;101659.53;;;12.52;100.00
65983;BME280;52740;40.620;-8.640;2022-11-12T01:33:03;101654.03;;;12.68;100.00
65983;BME280;52740;40.620;-8.640;2022-11-12T01:35:23;101645.19;;;12.78;100.00
65983;BME280;52740;40.620;-8.640;2022-11-12T01:37:42;101640.75;;;12.89;100.00
65983;BME280;52740;40.620;-8.640;2022-11-12T01:40:02;101644.94;;;13.02;100.00
65983;BME280;52740;40.620;-8.640;2022-11-12T01:42:27;101638.31;;;13.22;100.00
65983;BME280;52740;40.620;-8.640;2022-11-12T01:44:46;101638.31;;;13.22;100.00
65983;BME280;52740;40.620;-8.640;2022-11-12T01:49:40;101638.38;;;13.26;100.00
65983;BME280;52740;40.620;-8.640;2022-11-12T01:52:18;101632.97;;;13.29;100.00
65983;BME280;52740;40.620;-8.640;2022-11-12T01:54:39;101630.91;;;13.26;100.00
65983;BME280;52740;40.620;-8.640;2022-11-12T01:57:01;101628.91;;;13.23;100.00
65983;BME280;52740;40.620;-8.640;2022-11-12T01:59:28;101635.63;;;13.26;100.00
65983;BME280;52740;40.620;-8.640;2022-11-12T02:01:51;101636.72;;;13.21;100.00
65983;BME280;52740;40.620;-8.640;2022-11-12T02:04:10;101642.66;;;13.23;100.00
65983;BME280;52740;40.620;-8.640;2022-11-12T02:06:30;101636.56;;;13.14;100.00
65983;BME280;52740;40.620;-8.640;2022-11-12T02:08:50;101640.47;;;13.13;100.00
65983;BME280;52740;40.620;-8.640;2022-11-12T02:11:15;101630.19;;;13.10;100.00
65983;BME280;52740;40.620;-8.640;2022-11-12T02:13:35;101635.69;;;13.10;100.00
65983;BME280;52740;40.620;-8.640;2022-11-12T02:16:13;101630.91;;;13.07;100.00
65983;BME280;52740;40.620;-8.640;2022-11-12T02:18:32;101622.94;;;13.02;100.00
65983;BME280;52740;40.620;-8.640;2022-11-12T02:20:54;101614.41;;;13.07;100.00
65983;BME280;52740;40.620;-8.640;2022-11-12T02:23:15;101617.00;;;13.00;100.00
65983;BME280;52740;40.620;-8.640;2022-11-12T02:25:35;101599.41;;;12.85;100.00
65983;BME280;52740;40.620;-8.640;2022-11-12T02:27:55;101607.66;;;12.85;100.00
65983;BME280;52740;40.620;-8.640;2022-11-12T02:30:17;101604.97;;;12.70;100.00
65983;BME280;52740;40.620;-8.640;2022-11-12T02:32:37;101599.66;;;12.61;100.00
65983;BME280;52740;40.620;-8.640;2022-11-12T02:34:57;101589.28;;;12.35;100.00
65983;BME280;52740;40.620;-8.640;2022-11-12T02:37:15;101591.50;;;12.30;100.00
65983;BME280;52740;40.620;-8.640;2022-11-12T02:39:35;101604.16;;;12.34;100.00
65983;BME280;52740;40.620;-8.640;2022-11-12T02:41:54;101605.50;;;12.40;100.00
65983;BME280;52740;40.620;-8.640;2022-11-12T02:44:14;101604.63;;;12.55;100.00
65983;BME280;52740;40.620;-8.640;2022-11-12T02:46:33;101599.28;;;12.43;100.00
65983;BME280;52740;40.620;-8.640;2022-11-12T02:48:52;101602.00;;;12.43;100.00
65983;BME280;52740;40.620;-8.640;2022-11-12T02:51:11;101598.53;;;12.46;100.00
65983;BME280;52740;40.620;-8.640;2022-11-12T02:53:31;101599.13;;;12.36;100.00
65983;BME280;52740;40.620;-8.640;2022-11-12T02:55:50;101601.69;;;12.29;100.00
65983;BME280;52740;40.620;-8.640;2022-11-12T02:58:09;101605.59;;;12.28;100.00
65983;BME280;52740;40.620;-8.640;2022-11-12T03:00:28;101609.97;;;12.13;100.00
65983;BME280;52740;40.620;-8.640;2022-11-12T03:02:48;101595.53;;;12.01;100.00
65983;BME280;52740;40.620;-8.640;2022-11-12T03:05:19;101601.28;;;11.96;100.00
65983;BME280;52740;40.620;-8.640;2022-11-12T03:07:38;101592.09;;;11.88;100.00
65983;BME280;52740;40.620;-8.640;2022-11-12T03:09:57;101599.59;;;11.76;100.00
65983;BME280;52740;40.620;-8.640;2022-11-12T03:12:16;101595.69;;;11.77;100.00
65983;BME280;52740;40.620;-8.640;2022-11-12T03:14:36;101591.72;;;11.74;100.00
65983;BME280;52740;40.620;-8.640;2022-11-12T03:16:55;101598.69;;;11.71;100.00
65983;BME280;52740;40.620;-8.640;2022-11-12T03:19:14;101593.47;;;11.66;100.00
65983;BME280;52740;40.620;-8.640;2022-11-12T03:21:34;101591.22;;;11.56;100.00
65983;BME280;52740;40.620;-8.640;2022-11-12T03:23:53;101592.28;;;11.67;100.00
65983;BME280;52740;40.620;-8.640;2022-11-12T03:26:12;101597.34;;;11.65;100.00
65983;BME280;52740;40.620;-8.640;2022-11-12T03:28:32;101590.47;;;11.71;100.00
65983;BME280;52740;40.620;-8.640;2022-11-12T03:30:51;101588.63;;;11.76;100.00
65983;BME280;52740;40.620;-8.640;2022-11-12T03:33:14;101583.66;;;11.97;100.00
65983;BME280;52740;40.620;-8.640;2022-11-12T03:35:35;101592.69;;;12.13;100.00
65983;BME280;52740;40.620;-8.640;2022-11-12T03:37:54;101591.16;;;12.15;100.00
65983;BME280;52740;40.620;-8.640;2022-11-12T03:40:13;101576.81;;;12.22;100.00
65983;BME280;52740;40.620;-8.640;2022-11-12T03:42:33;101569.72;;;12.21;100.00
65983;BME280;52740;40.620;-8.640;2022-11-12T03:44:52;101572.63;;;12.28;100.00
65983;BME280;52740;40.620;-8.640;2022-11-12T03:47:11;101574.31;;;12.33;100.00
65983;BME280;52740;40.620;-8.640;2022-11-12T03:49:35;101571.13;;;12.31;100.00
65983;BME280;52740;40.620;-8.640;2022-11-12T03:51:54;101572.88;;;12.39;100.00
65983;BME280;52740;40.620;-8.640;2022-11-12T03:54:28;101577.28;;;12.43;100.00
65983;BME280;52740;40.620;-8.640;2022-11-12T03:56:48;101574.53;;;12.43;100.00
65983;BME280;52740;40.620;-8.640;2022-11-12T03:59:08;101557.09;;;12.36;100.00
65983;BME280;52740;40.620;-8.640;2022-11-12T04:01:30;101569.31;;;12.38;100.00
65983;BME280;52740;40.620;-8.640;2022-11-12T04:03:55;101567.03;;;12.25;100.00
65983;BME280;52740;40.620;-8.640;2022-11-12T04:06:14;101580.59;;;12.33;100.00
65983;BME280;52740;40.620;-8.640;2022-11-12T04:08:53;101581.50;;;12.37;100.00
65983;BME280;52740;40.620;-8.640;2022-11-12T04:11:21;101573.41;;;12.29;100.00
65983;BME280;52740;40.620;-8.640;2022-11-12T04:13:43;101574.50;;;12.24;100.00
65983;BME280;52740;40.620;-8.640;2022-11-12T04:16:20;101582.31;;;12.22;100.00
65983;BME280;52740;40.620;-8.640;2022-11-12T04:19:01;101576.66;;;12.15;100.00
65983;BME280;52740;40.620;-8.640;2022-11-12T04:21:47;101584.25;;;12.22;100.00
65983;BME280;52740;40.620;-8.640;2022-11-12T04:24:10;101584.59;;;12.20;100.00
65983;BME280;52740;40.620;-8.640;2022-11-12T04:26:49;101578.28;;;12.35;100.00
65983;BME280;52740;40.620;-8.640;2022-11-12T04:29:08;101576.13;;;12.44;100.00
65983;BME280;52740;40.620;-8.640;2022-11-12T04:37:24;101578.28;;;12.70;100.00
65983;BME280;52740;40.620;-8.640;2022-11-12T04:40:02;101584.00;;;12.81;100.00
65983;BME280;52740;40.620;-8.640;2022-11-12T04:42:49;101577.91;;;12.91;100.00
65983;BME280;52740;40.620;-8.640;2022-11-12T04:45:27;101575.88;;;12.88;100.00
65983;BME280;52740;40.620;-8.640;2022-11-12T04:47:46;101579.50;;;12.92;100.00
65983;BME280;52740;40.620;-8.640;2022-11-12T04:50:14;101577.56;;;12.92;100.00
65983;BME280;52740;40.620;-8.640;2022-11-12T04:52:34;101577.91;;;12.91;100.00
65983;BME280;52740;40.620;-8.640;2022-11-12T04:54:53;101579.50;;;12.92;100.00
65983;BME280;52740;40.620;-8.640;2022-11-12T04:57:13;101582.84;;;13.01;100.00
65983;BME280;52740;40.620;-8.640;2022-11-12T04:59:32;101581.97;;;12.97;100.00
65983;BME280;52740;40.620;-8.640;2022-11-12T05:01:51;101589.00;;;12.94;100.00
65983;BME280;52740;40.620;-8.640;2022-11-12T05:04:10;101590.84;;;12.90;100.00
65983;BME280;52740;40.620;-8.640;2022-11-12T05:06:29;101595.88;;;12.85;100.00
65983;BME280;52740;40.620;-8.640;2022-11-12T05:09:07;101594.13;;;12.77;100.00
65983;BME280;52740;40.620;-8.640;2022-11-12T05:11:26;101597.16;;;12.72;100.00
65983;BME280;52740;40.620;-8.640;2022-11-12T05:13:46;101597.88;;;12.69;100.00
65983;BME280;52740;40.620;-8.640;2022-11-12T05:16:05;101596.91;;;12.61;100.00
65983;BME280;52740;40.620;-8.640;2022-11-12T05:18:24;101603.06;;;12.54;100.00
65983;BME280;52740;40.620;-8.640;2022-11-12T05:20:43;101595.59;;;12.55;100.00
65983;BME280;52740;40.620;-8.640;2022-11-12T05:23:02;101592.19;;;12.42;100.00
65983;BME280;52740;40.620;-8.640;2022-11-12T05:25:21;101591.31;;;12.38;100.00
65983;BME280;52740;40.620;-8.640;2022-11-12T05:27:40;101591.81;;;12.44;100.00
65983;BME280;52740;40.620;-8.640;2022-11-12T05:29:59;101589.59;;;12.49;100.00
65983;BME280;52740;40.620;-8.640;2022-11-12T05:32:19;101593.31;;;12.57;100.00
65983;BME280;52740;40.620;-8.640;2022-11-12T05:34:38;101588.53;;;12.54;100.00
65983;BME280;52740;40.620;-8.640;2022-11-12T05:36:58;101590.47;;;12.53;100.00
65983;BME280;52740;40.620;-8.640;2022-11-12T05:39:17;101587.19;;;12.48;100.00
65983;BME280;52740;40.620;-8.640;2022-11-12T05:41:37;101573.75;;;12.43;100.00
65983;BME280;52740;40.620;-8.640;2022-11-12T05:43:55;101585.53;;;12.43;100.00
65983;BME280;52740;40.620;-8.640;2022-11-12T05:46:15;101581.19;;;12.42;100.00
65983;BME280;52740;40.620;-8.640;2022-11-12T05:48:34;101572.78;;;12.35;100.00
65983;BME280;52740;40.620;-8.640;2022-11-12T05:50:53;101573.50;;;12.32;100.00
65983;BME280;52740;40.620;-8.640;2022-11-12T05:53:13;101583.84;;;12.39;100.00
65983;BME280;52740;40.620;-8.640;2022-11-12T05:55:32;101577.13;;;12.36;100.00
65983;BME280;52740;40.620;-8.640;2022-11-12T05:57:51;101568.28;;;12.27;100.00
65983;BME280;52740;40.620;-8.640;2022-11-12T06:00:11;101564.81;;;12.30;100.00
65983;BME280;52740;40.620;-8.640;2022-11-12T06:02:30;101576.59;;;12.31;100.00
65983;BME280;52740;40.620;-8.640;2022-11-12T06:04:49;101580.69;;;12.21;100.00
65983;BME280;52740;40.620;-8.640;2022-11-12T06:07:08;101582.41;;;12.10;100.00
65983;BME280;52740;40.620;-8.640;2022-11-12T06:09:27;101581.34;;;12.14;100.00
65983;BME280;52740;40.620;-8.640;2022-11-12T06:11:46;101580.69;;;12.21;100.00
65983;BME280;52740;40.620;-8.640;2022-11-12T06:14:05;101579.28;;;12.11;100.00
65983;BME280;52740;40.620;-8.640;2022-11-12T06:16:24;101575.13;;;12.17;100.00
65983;BME280;52740;40.620;-8.640;2022-11-12T06:18:44;101580.34;;;12.23;100.00
65983;BME280;52740;40.620;-8.640;2022-11-12T06:21:09;101575.09;;;12.33;100.00
65983;BME280;52740;40.620;-8.640;2022-11-12T06:23:37;101569.78;;;12.40;100.00
65983;BME280;52740;40.620;-8.640;2022-11-12T06:25:56;101573.91;;;12.50;100.00
65983;BME280;52740;40.620;-8.640;2022-11-12T06:28:15;101578.63;;;12.49;100.00
65983;BME280;52740;40.620;-8.640;2022-11-12T06:30:34;101575.41;;;12.47;100.00
65983;BME280;52740;40.620;-8.640;2022-11-12T06:32:54;101575.88;;;12.49;100.00
65983;BME280;52740;40.620;-8.640;2022-11-12T06:35:13;101577.47;;;12.50;100.00
65983;BME280;52740;40.620;-8.640;2022-11-12T06:37:32;101579.31;;;12.46;100.00
65983;BME280;52740;40.620;-8.640;2022-11-12T06:39:51;101581.19;;;12.42;100.00
65983;BME280;52740;40.620;-8.640;2022-11-12T06:42:11;101582.66;;;12.55;100.00
65983;BME280;52740;40.620;-8.640;2022-11-12T06:44:30;101583.53;;;12.59;100.00
65983;BME280;52740;40.620;-8.640;2022-11-12T06:46:49;101580.91;;;12.47;100.00
65983;BME280;52740;40.620;-8.640;2022-11-12T06:49:08;101594.38;;;12.52;100.00
65983;BME280;52740;40.620;-8.640;2022-11-12T06:51:28;101591.69;;;12.56;100.00
65983;BME280;52740;40.620;-8.640;2022-11-12T06:53:47;101580.91;;;12.47;100.00
65983;BME280;52740;40.620;-8.640;2022-11-12T06:56:07;101576.41;;;12.39;100.00
65983;BME280;52740;40.620;-8.640;2022-11-12T06:58:26;101582.50;;;12.48;100.00
65983;BME280;52740;40.620;-8.640;2022-11-12T07:00:46;101576.28;;;12.51;100.00
65983;BME280;52740;40.620;-8.640;2022-11-12T07:03:09;101565.47;;;12.58;100.00
65983;BME280;52740;40.620;-8.640;2022-11-12T07:05:30;101563.88;;;12.57;100.00
65983;BME280;52740;40.620;-8.640;2022-11-12T07:07:49;101565.47;;;12.58;100.00
65983;BME280;52740;40.620;-8.640;2022-11-12T07:10:09;101559.50;;;12.56;100.00
65983;BME280;52740;40.620;-8.640;2022-11-12T07:12:27;101565.19;;;12.63;100.00
65983;BME280;52740;40.620;-8.640;2022-11-12T07:14:47;101581.03;;;12.70;100.00
65983;BME280;52740;40.620;-8.640;2022-11-12T07:17:06;101581.88;;;12.74;100.00
65983;BME280;52740;40.620;-8.640;2022-11-12T07:19:25;101586.31;;;12.79;100.00
65983;BME280;52740;40.620;-8.640;2022-11-12T07:21:44;101591.59;;;12.87;100.00
65983;BME280;52740;40.620;-8.640;2022-11-12T07:24:04;101589.78;;;12.95;100.00
65983;BME280;52740;40.620;-8.640;2022-11-12T07:26:25;101587.59;;;13.04;100.00
65983;BME280;52740;40.620;-8.640;2022-11-12T07:28:46;101596.72;;;13.08;100.00
65983;BME280;52740;40.620;-8.640;2022-11-12T07:31:07;101604.09;;;13.04;100.00
65983;BME280;52740;40.620;-8.640;2022-11-12T07:33:28;101594.19;;;12.99;100.00
65983;BME280;52740;40.620;-8.640;2022-11-12T07:35:47;101606.16;;;13.07;100.00
65983;BME280;52740;40.620;-8.640;2022-11-12T07:38:16;101606.75;;;13.16;100.00
65983;BME280;52740;40.620;-8.640;2022-11-12T07:40:36;101600.09;;;13.17;100.00
65983;BME280;52740;40.620;-8.640;2022-11-12T07:42:57;101604.88;;;13.20;100.00
65983;BME280;52740;40.620;-8.640;2022-11-12T07:45:16;101610.78;;;13.22;100.00
65983;BME280;52740;40.620;-8.640;2022-11-12T07:47:35;101614.78;;;13.25;100.00
65983;BME280;52740;40.620;-8.640;2022-11-12T07:49:54;101617.69;;;13.32;100.00
65983;BME280;52740;40.620;-8.640;2022-11-12T07:52:44;101600.59;;;13.23;100.00
65983;BME280;52740;40.620;-8.640;2022-11-12T07:55:06;101621.00;;;13.41;100.00
65983;BME280;52740;40.620;-8.640;2022-11-12T07:57:28;101611.13;;;13.40;100.00
65983;BME280;52740;40.620;-8.640;2022-11-12T07:59:49;101599.28;;;13.36;100.00
65983;BME280;52740;40.620;-8.640;2022-11-12T08:02:08;101621.06;;;13.44;100.00
65983;BME280;52740;40.620;-8.640;2022-11-12T08:04:40;101624.66;;;13.48;100.00
65983;BME280;52740;40.620;-8.640;2022-11-12T08:07:04;101630.31;;;13.56;100.00
65983;BME280;52740;40.620;-8.640;2022-11-12T08:09:37;101625.25;;;13.58;100.00
65983;BME280;52740;40.620;-8.640;2022-11-12T08:11:56;101616.25;;;13.61;100.00
65983;BME280;52740;40.620;-8.640;2022-11-12T08:14:16;101631.88;;;13.76;100.00
65983;BME280;52740;40.620;-8.640;2022-11-12T08:16:35;101627.28;;;13.83;100.00
65983;BME280;52740;40.620;-8.640;2022-11-12T08:18:54;101628.63;;;13.93;100.00
65983;BME280;52740;40.620;-8.640;2022-11-12T08:21:16;101631.81;;;13.95;100.00
65983;BME280;52740;40.620;-8.640;2022-11-12T08:23:35;101630.22;;;13.94;100.00
65983;BME280;52740;40.620;-8.640;2022-11-12T08:26:02;101634.25;;;14.00;100.00
65983;BME280;52740;40.620;-8.640;2022-11-12T08:28:29;101637.13;;;14.07;100.00
65983;BME280;52740;40.620;-8.640;2022-11-12T08:30:48;101637.63;;;14.13;100.00
65983;BME280;52740;40.620;-8.640;2022-11-12T08:33:08;101655.97;;;14.28;100.00
65983;BME280;52740;40.620;-8.640;2022-11-12T08:35:28;101646.59;;;14.32;100.00
65983;BME280;52740;40.620;-8.640;2022-11-12T08:37:47;101634.53;;;14.40;100.00
65983;BME280;52740;40.620;-8.640;2022-11-12T08:40:07;101642.19;;;14.51;100.00
65983;BME280;52740;40.620;-8.640;2022-11-12T08:42:26;101647.38;;;14.56;100.00
65983;BME280;52740;40.620;-8.640;2022-11-12T08:44:46;101652.66;;;14.68;100.00
65983;BME280;52740;40.620;-8.640;2022-11-12T08:47:05;101643.28;;;14.72;100.00
65983;BME280;52740;40.620;-8.640;2022-11-12T08:49:28;101654.13;;;14.88;100.00
65983;BME280;52740;40.620;-8.640;2022-11-12T08:51:47;101656.16;;;14.91;100.00
65983;BME280;52740;40.620;-8.640;2022-11-12T08:54:06;101662.56;;;14.99;100.00
65983;BME280;52740;40.620;-8.640;2022-11-12T08:56:25;101654.75;;;15.04;100.00
65983;BME280;52740;40.620;-8.640;2022-11-12T08:58:45;101658.03;;;15.13;100.00
65983;BME280;52740;40.620;-8.640;2022-11-12T09:01:06;101651.38;;;15.18;100.00
65983;BME280;52740;40.620;-8.640;2022-11-12T09:03:25;101653.03;;;15.22;100.00
65983;BME280;52740;40.620;-8.640;2022-11-12T09:05:45;101655.88;;;15.33;100.00
65983;BME280;52740;40.620;-8.640;2022-11-12T09:08:06;101645.00;;;15.47;100.00
65983;BME280;52740;40.620;-8.640;2022-11-12T09:10:26;101650.59;;;15.51;100.00
65983;BME280;52740;40.620;-8.640;2022-11-12T09:12:49;101658.59;;;15.59;100.00
65983;BME280;52740;40.620;-8.640;2022-11-12T09:15:09;101680.41;;;15.71;100.00
65983;BME280;52740;40.620;-8.640;2022-11-12T09:17:28;101659.03;;;15.65;100.00
65983;BME280;52740;40.620;-8.640;2022-11-12T09:19:49;101669.00;;;15.73;100.00
65983;BME280;52740;40.620;-8.640;2022-11-12T09:22:11;101672.22;;;15.78;100.00
65983;BME280;52740;40.620;-8.640;2022-11-12T09:24:30;101668.19;;;15.72;100.00
65983;BME280;52740;40.620;-8.640;2022-11-12T09:26:51;101684.78;;;15.76;100.00
65983;BME280;52740;40.620;-8.640;2022-11-12T09:29:11;101684.84;;;15.80;100.00
65983;BME280;52740;40.620;-8.640;2022-11-12T09:31:30;101688.06;;;15.85;100.00
65983;BME280;52740;40.620;-8.640;2022-11-12T09:33:50;101696.44;;;15.92;100.00
65983;BME280;52740;40.620;-8.640;2022-11-12T09:36:09;101699.63;;;15.98;100.00
65983;BME280;52740;40.620;-8.640;2022-11-12T09:38:29;101685.31;;;15.89;100.00
65983;BME280;52740;40.620;-8.640;2022-11-12T09:43:17;101694.66;;;16.14;100.00
65983;BME280;52740;40.620;-8.640;2022-11-12T09:45:39;101701.81;;;16.18;100.00
65983;BME280;52740;40.620;-8.640;2022-11-12T09:48:05;101680.91;;;16.24;100.00
65983;BME280;52740;40.620;-8.640;2022-11-12T09:50:30;101693.28;;;16.38;100.00
65983;BME280;52740;40.620;-8.640;2022-11-12T09:52:59;101689.75;;;16.41;100.00
65983;BME280;52740;40.620;-8.640;2022-11-12T09:55:29;101687.38;;;16.43;100.00
65983;BME280;52740;40.620;-8.640;2022-11-12T09:57:49;101694.16;;;16.49;100.00
65983;BME280;52740;40.620;-8.640;2022-11-12T10:02:38;101685.56;;;16.57;100.00
65983;BME280;52740;40.620;-8.640;2022-11-12T10:05:10;101693.63;;;16.80;100.00
65983;BME280;52740;40.620;-8.640;2022-11-12T10:17:50;101699.75;;;17.14;100.00
65983;BME280;52740;40.620;-8.640;2022-11-12T10:20:25;101701.72;;;17.21;100.00
65983;BME280;52740;40.620;-8.640;2022-11-12T10:25:13;101696.25;;;17.31;100.00
65983;BME280;52740;40.620;-8.640;2022-11-12T10:27:37;101695.47;;;17.31;100.00
65983;BME280;52740;40.620;-8.640;2022-11-12T10:30:03;101694.72;;;17.41;100.00
65983;BME280;52740;40.620;-8.640;2022-11-12T10:32:23;101700.63;;;17.39;100.00
65983;BME280;52740;40.620;-8.640;2022-11-12T10:34:42;101701.06;;;17.45;100.00
65983;BME280;52740;40.620;-8.640;2022-11-12T10:37:10;101701.16;;;17.59;100.00
65983;BME280;52740;40.620;-8.640;2022-11-12T10:39:35;101687.66;;;17.57;100.00
65983;BME280;52740;40.620;-8.640;2022-11-12T10:42:03;101697.97;;;17.64;100.00
65983;BME280;52740;40.620;-8.640;2022-11-12T10:44:25;101689.28;;;17.69;100.00
65983;BME280;52740;40.620;-8.640;2022-11-12T10:46:45;101701.97;;;17.77;100.00
65983;BME280;52740;40.620;-8.640;2022-11-12T10:53:47;101705.56;;;17.92;100.00
65983;BME280;52740;40.620;-8.640;2022-11-12T10:56:29;101703.63;;;18.07;100.00
65983;BME280;52740;40.620;-8.640;2022-11-12T10:59:25;101710.78;;;18.36;100.00
65983;BME280;52740;40.620;-8.640;2022-11-12T11:01:45;101711.56;;;18.40;100.00
65983;BME280;52740;40.620;-8.640;2022-11-12T11:04:31;101719.13;;;18.54;100.00
65983;BME280;52740;40.620;-8.640;2022-11-12T11:07:15;101712.38;;;18.58;100.00
65983;BME280;52740;40.620;-8.640;2022-11-12T11:09:36;101714.38;;;18.68;100.00
65983;BME280;52740;40.620;-8.640;2022-11-12T11:11:55;101710.38;;;18.76;100.00
65983;BME280;52740;40.620;-8.640;2022-11-12T11:17:00;101705.59;;;18.95;100.00
65983;BME280;52740;40.620;-8.640;2022-11-12T11:19:21;101698.41;;;19.08;100.00
65983;BME280;52740;40.620;-8.640;2022-11-12T11:21:52;101698.00;;;19.16;100.00
65983;BME280;52740;40.620;-8.640;2022-11-12T11:27:24;101689.59;;;19.34;100.00
65983;BME280;52740;40.620;-8.640;2022-11-12T11:30:12;101682.41;;;19.40;100.00
65983;BME280;52740;40.620;-8.640;2022-11-12T11:37:37;101668.44;;;19.61;100.00
65983;BME280;52740;40.620;-8.640;2022-11-12T11:42:54;101666.69;;;19.85;100.00
65983;BME280;52740;40.620;-8.640;2022-11-12T11:48:24;101653.38;;;20.14;100.00
65983;BME280;52740;40.620;-8.640;2022-11-12T11:51:14;101649.34;;;20.22;100.00
65983;BME280;52740;40.620;-8.640;2022-11-12T11:53:55;101645.31;;;20.30;100.00
65983;BME280;52740;40.620;-8.640;2022-11-12T11:56:26;101629.78;;;20.33;100.00
65983;BME280;52740;40.620;-8.640;2022-11-12T11:59:16;101634.81;;;20.48;100.00
65983;BME280;52740;40.620;-8.640;2022-11-12T12:01:51;101632.69;;;20.59;100.00
65983;BME280;52740;40.620;-8.640;2022-11-12T12:09:46;101620.72;;;20.62;100.00
65983;BME280;52740;40.620;-8.640;2022-11-12T12:12:30;101624.19;;;20.74;100.00
65983;BME280;52740;40.620;-8.640;2022-11-12T12:17:57;101617.03;;;21.06;100.00
65983;BME280;52740;40.620;-8.640;2022-11-12T12:20:37;101616.88;;;21.21;100.00
65983;BME280;52740;40.620;-8.640;2022-11-12T12:23:03;101618.06;;;21.23;100.00
65983;BME280;52740;40.620;-8.640;2022-11-12T12:25:28;101614.03;;;21.24;100.00
65983;BME280;52740;40.620;-8.640;2022-11-12T12:27:58;101604.81;;;21.31;100.00
65983;BME280;52740;40.620;-8.640;2022-11-12T12:30:21;101609.53;;;21.34;100.00
65983;BME280;52740;40.620;-8.640;2022-11-12T12:32:48;101609.47;;;21.37;100.00
65983;BME280;52740;40.620;-8.640;2022-11-12T12:35:26;101598.03;;;21.32;100.00
65983;BME280;52740;40.620;-8.640;2022-11-12T12:40:41;101588.72;;;21.42;100.00
65983;BME280;52740;40.620;-8.640;2022-11-12T12:45:29;101588.63;;;21.49;99.73
65983;BME280;52740;40.620;-8.640;2022-11-12T12:47:53;101586.13;;;21.54;100.00
65983;BME280;52740;40.620;-8.640;2022-11-12T12:50:14;101586.84;;;21.62;100.00
65983;BME280;52740;40.620;-8.640;2022-11-12T12:53:00;101586.78;;;21.66;100.00
65983;BME280;52740;40.620;-8.640;2022-11-12T12:55:38;101580.47;;;21.62;99.67
65983;BME280;52740;40.620;-8.640;2022-11-12T12:57:58;101578.09;;;21.60;100.00
65983;BME280;52740;40.620;-8.640;2022-11-12T13:00:39;101568.72;;;21.74;99.51
65983;BME280;52740;40.620;-8.640;2022-11-12T13:02:59;101570.66;;;21.77;100.00
65983;BME280;52740;40.620;-8.640;2022-11-12T13:07:47;101556.66;;;21.80;95.26
65983;BME280;52740;40.620;-8.640;2022-11-12T13:15:48;101550.44;;;21.96;95.64